sensor_id;sensor_type;location;lat;lon;timestamp;temperature;humidity
44990;DHT22;30723;51.206;3.326;2023-07-28T00:00:28;18.40;99.90
44990;DHT22;30723;51.206;3.326;2023-07-28T00:02:54;18.50;99.90
44990;DHT22;30723;51.206;3.326;2023-07-28T00:05:21;18.50;99.90
44990;DHT22;30723;51.206;3.326;2023-07-28T00:07:47;18.40;99.90
44990;DHT22;30723;51.206;3.326;2023-07-28T00:10:14;18.50;99.90
44990;DHT22;30723;51.206;3.326;2023-07-28T00:12:40;18.50;99.90
44990;DHT22;30723;51.206;3.326;2023-07-28T00:15:06;18.40;99.90
44990;DHT22;30723;51.206;3.326;2023-07-28T00:17:33;18.40;99.90
44990;DHT22;30723;51.206;3.326;2023-07-28T00:19:59;18.40;99.90
44990;DHT22;30723;51.206;3.326;2023-07-28T00:22:26;18.50;99.90
44990;DHT22;30723;51.206;3.326;2023-07-28T00:24:51;18.50;99.90
44990;DHT22;30723;51.206;3.326;2023-07-28T00:27:17;18.40;99.90
44990;DHT22;30723;51.206;3.326;2023-07-28T00:29:44;18.40;99.90
44990;DHT22;30723;51.206;3.326;2023-07-28T00:32:10;18.50;99.90
44990;DHT22;30723;51.206;3.326;2023-07-28T00:34:37;18.50;99.90
44990;DHT22;30723;51.206;3.326;2023-07-28T00:37:02;18.40;99.90
44990;DHT22;30723;51.206;3.326;2023-07-28T00:39:29;18.50;99.90
44990;DHT22;30723;51.206;3.326;2023-07-28T00:41:55;18.50;99.90
44990;DHT22;30723;51.206;3.326;2023-07-28T00:44:22;18.60;99.90
44990;DHT22;30723;51.206;3.326;2023-07-28T00:46:49;18.60;99.90
44990;DHT22;30723;51.206;3.326;2023-07-28T00:49:15;18.60;99.90
44990;DHT22;30723;51.206;3.326;2023-07-28T00:51:42;18.60;99.90
44990;DHT22;30723;51.206;3.326;2023-07-28T00:54:08;18.60;99.90
44990;DHT22;30723;51.206;3.326;2023-07-28T00:56:34;18.60;99.90
44990;DHT22;30723;51.206;3.326;2023-07-28T00:59:00;18.50;99.90
44990;DHT22;30723;51.206;3.326;2023-07-28T01:01:27;18.50;99.90
44990;DHT22;30723;51.206;3.326;2023-07-28T01:03:53;18.50;99.90
44990;DHT22;30723;51.206;3.326;2023-07-28T01:09:07;18.60;99.90
44990;DHT22;30723;51.206;3.326;2023-07-28T01:11:36;18.60;99.90
44990;DHT22;30723;51.206;3.326;2023-07-28T01:14:03;18.60;99.90
44990;DHT22;30723;51.206;3.326;2023-07-28T01:16:29;18.60;99.90
44990;DHT22;30723;51.206;3.326;2023-07-28T01:18:55;18.60;99.90
44990;DHT22;30723;51.206;3.326;2023-07-28T01:21:25;18.50;99.90
44990;DHT22;30723;51.206;3.326;2023-07-28T01:24:04;18.50;99.90
44990;DHT22;30723;51.206;3.326;2023-07-28T01:26:38;18.50;99.90
44990;DHT22;30723;51.206;3.326;2023-07-28T01:29:05;18.50;99.90
44990;DHT22;30723;51.206;3.326;2023-07-28T01:31:31;18.60;99.90
44990;DHT22;30723;51.206;3.326;2023-07-28T01:33:57;18.60;99.90
44990;DHT22;30723;51.206;3.326;2023-07-28T01:36:23;18.60;99.90
44990;DHT22;30723;51.206;3.326;2023-07-28T01:38:50;18.70;99.90
44990;DHT22;30723;51.206;3.326;2023-07-28T01:41:16;18.70;99.90
44990;DHT22;30723;51.206;3.326;2023-07-28T01:43:43;18.60;99.90
44990;DHT22;30723;51.206;3.326;2023-07-28T01:46:10;18.70;99.90
44990;DHT22;30723;51.206;3.326;2023-07-28T01:48:36;18.70;99.90
44990;DHT22;30723;51.206;3.326;2023-07-28T01:51:03;18.70;99.90
44990;DHT22;30723;51.206;3.326;2023-07-28T01:53:28;18.70;99.90
44990;DHT22;30723;51.206;3.326;2023-07-28T01:55:54;18.70;99.90
44990;DHT22;30723;51.206;3.326;2023-07-28T01:58:20;18.70;99.90
44990;DHT22;30723;51.206;3.326;2023-07-28T02:00:45;18.70;99.90
44990;DHT22;30723;51.206;3.326;2023-07-28T02:03:14;18.80;99.90
44990;DHT22;30723;51.206;3.326;2023-07-28T02:05:40;18.70;99.90
44990;DHT22;30723;51.206;3.326;2023-07-28T02:08:05;18.80;99.90
44990;DHT22;30723;51.206;3.326;2023-07-28T02:10:31;18.80;99.90
44990;DHT22;30723;51.206;3.326;2023-07-28T02:12:57;18.80;99.90
44990;DHT22;30723;51.206;3.326;2023-07-28T02:15:23;18.80;99.90
44990;DHT22;30723;51.206;3.326;2023-07-28T02:17:49;18.80;99.90
44990;DHT22;30723;51.206;3.326;2023-07-28T02:20:16;18.70;99.90
44990;DHT22;30723;51.206;3.326;2023-07-28T02:22:43;18.80;99.90
44990;DHT22;30723;51.206;3.326;2023-07-28T02:25:09;18.80;99.90
44990;DHT22;30723;51.206;3.326;2023-07-28T02:27:37;18.70;99.90
44990;DHT22;30723;51.206;3.326;2023-07-28T02:30:05;18.80;99.90
44990;DHT22;30723;51.206;3.326;2023-07-28T02:32:32;18.70;99.90
44990;DHT22;30723;51.206;3.326;2023-07-28T02:34:59;18.80;99.90
44990;DHT22;30723;51.206;3.326;2023-07-28T02:37:26;18.80;99.90
44990;DHT22;30723;51.206;3.326;2023-07-28T02:40:00;18.70;99.90
44990;DHT22;30723;51.206;3.326;2023-07-28T02:42:27;18.80;99.90
44990;DHT22;30723;51.206;3.326;2023-07-28T02:44:54;18.80;99.90
44990;DHT22;30723;51.206;3.326;2023-07-28T02:47:20;18.80;99.90
44990;DHT22;30723;51.206;3.326;2023-07-28T02:49:46;18.70;99.90
44990;DHT22;30723;51.206;3.326;2023-07-28T02:52:12;18.70;99.90
44990;DHT22;30723;51.206;3.326;2023-07-28T02:54:38;18.70;99.90
44990;DHT22;30723;51.206;3.326;2023-07-28T02:57:05;18.70;99.90
44990;DHT22;30723;51.206;3.326;2023-07-28T02:59:30;18.70;99.90
44990;DHT22;30723;51.206;3.326;2023-07-28T03:01:56;18.80;99.90
44990;DHT22;30723;51.206;3.326;2023-07-28T03:04:23;18.80;99.90
44990;DHT22;30723;51.206;3.326;2023-07-28T03:06:50;18.70;99.90
44990;DHT22;30723;51.206;3.326;2023-07-28T03:09:16;18.80;99.90
44990;DHT22;30723;51.206;3.326;2023-07-28T03:11:43;18.80;99.90
44990;DHT22;30723;51.206;3.326;2023-07-28T03:14:10;18.80;99.90
44990;DHT22;30723;51.206;3.326;2023-07-28T03:16:39;18.80;99.90
44990;DHT22;30723;51.206;3.326;2023-07-28T03:19:06;18.80;99.90
44990;DHT22;30723;51.206;3.326;2023-07-28T03:21:33;18.80;99.90
44990;DHT22;30723;51.206;3.326;2023-07-28T03:24:00;18.80;99.90
44990;DHT22;30723;51.206;3.326;2023-07-28T03:26:25;18.80;99.90
44990;DHT22;30723;51.206;3.326;2023-07-28T03:28:51;18.70;99.90
44990;DHT22;30723;51.206;3.326;2023-07-28T03:31:17;18.80;99.90
44990;DHT22;30723;51.206;3.326;2023-07-28T03:33:43;18.80;99.90
44990;DHT22;30723;51.206;3.326;2023-07-28T03:36:08;18.80;99.90
44990;DHT22;30723;51.206;3.326;2023-07-28T03:38:34;18.80;99.90
44990;DHT22;30723;51.206;3.326;2023-07-28T03:41:01;18.80;99.90
44990;DHT22;30723;51.206;3.326;2023-07-28T03:43:28;18.80;99.90
44990;DHT22;30723;51.206;3.326;2023-07-28T03:45:55;18.80;99.90
44990;DHT22;30723;51.206;3.326;2023-07-28T03:48:22;18.70;99.90
44990;DHT22;30723;51.206;3.326;2023-07-28T03:50:49;18.70;99.90
44990;DHT22;30723;51.206;3.326;2023-07-28T03:53:16;18.80;99.90
44990;DHT22;30723;51.206;3.326;2023-07-28T03:55:42;18.70;99.90
44990;DHT22;30723;51.206;3.326;2023-07-28T03:58:09;18.70;99.90
44990;DHT22;30723;51.206;3.326;2023-07-28T04:00:35;18.70;99.90
44990;DHT22;30723;51.206;3.326;2023-07-28T04:03:01;18.80;99.90
44990;DHT22;30723;51.206;3.326;2023-07-28T04:05:36;18.80;99.90
44990;DHT22;30723;51.206;3.326;2023-07-28T04:08:03;18.80;99.90
44990;DHT22;30723;51.206;3.326;2023-07-28T04:10:29;18.70;99.90
44990;DHT22;30723;51.206;3.326;2023-07-28T04:12:56;18.70;99.90
44990;DHT22;30723;51.206;3.326;2023-07-28T04:15:23;18.70;99.90
44990;DHT22;30723;51.206;3.326;2023-07-28T04:17:49;18.80;99.90
44990;DHT22;30723;51.206;3.326;2023-07-28T04:20:16;18.70;99.90
44990;DHT22;30723;51.206;3.326;2023-07-28T04:22:42;18.70;99.90
44990;DHT22;30723;51.206;3.326;2023-07-28T04:25:09;18.70;99.90
44990;DHT22;30723;51.206;3.326;2023-07-28T04:27:36;18.70;99.90
44990;DHT22;30723;51.206;3.326;2023-07-28T04:30:04;18.70;99.90
44990;DHT22;30723;51.206;3.326;2023-07-28T04:32:31;18.70;99.90
44990;DHT22;30723;51.206;3.326;2023-07-28T04:34:58;18.70;99.90
44990;DHT22;30723;51.206;3.326;2023-07-28T04:37:25;18.70;99.90
44990;DHT22;30723;51.206;3.326;2023-07-28T04:39:52;18.70;99.90
44990;DHT22;30723;51.206;3.326;2023-07-28T04:42:18;18.70;99.90
44990;DHT22;30723;51.206;3.326;2023-07-28T04:44:45;18.70;99.90
44990;DHT22;30723;51.206;3.326;2023-07-28T04:47:13;18.70;99.90
44990;DHT22;30723;51.206;3.326;2023-07-28T04:49:39;18.70;99.90
44990;DHT22;30723;51.206;3.326;2023-07-28T04:52:06;18.80;99.90
44990;DHT22;30723;51.206;3.326;2023-07-28T04:54:33;18.80;99.90
44990;DHT22;30723;51.206;3.326;2023-07-28T04:56:59;18.80;99.90
44990;DHT22;30723;51.206;3.326;2023-07-28T04:59:24;18.90;99.90
44990;DHT22;30723;51.206;3.326;2023-07-28T05:01:51;18.90;99.90
44990;DHT22;30723;51.206;3.326;2023-07-28T05:04:17;18.80;99.90
44990;DHT22;30723;51.206;3.326;2023-07-28T05:06:44;18.80;99.90
44990;DHT22;30723;51.206;3.326;2023-07-28T05:09:10;18.80;99.90
44990;DHT22;30723;51.206;3.326;2023-07-28T05:11:37;18.80;99.90
44990;DHT22;30723;51.206;3.326;2023-07-28T05:14:03;18.90;99.90
44990;DHT22;30723;51.206;3.326;2023-07-28T05:16:32;19.00;99.90
44990;DHT22;30723;51.206;3.326;2023-07-28T05:18:59;19.00;99.90
44990;DHT22;30723;51.206;3.326;2023-07-28T05:21:25;19.00;99.90
44990;DHT22;30723;51.206;3.326;2023-07-28T05:23:52;19.00;99.90
44990;DHT22;30723;51.206;3.326;2023-07-28T05:26:18;19.00;99.90
44990;DHT22;30723;51.206;3.326;2023-07-28T05:28:45;18.80;99.90
44990;DHT22;30723;51.206;3.326;2023-07-28T05:31:12;18.80;99.90
44990;DHT22;30723;51.206;3.326;2023-07-28T05:33:40;18.80;99.90
44990;DHT22;30723;51.206;3.326;2023-07-28T05:36:06;18.80;99.90
44990;DHT22;30723;51.206;3.326;2023-07-28T05:38:33;18.90;99.90
44990;DHT22;30723;51.206;3.326;2023-07-28T05:41:01;19.00;99.90
44990;DHT22;30723;51.206;3.326;2023-07-28T05:43:32;18.90;99.90
44990;DHT22;30723;51.206;3.326;2023-07-28T05:46:00;19.00;99.90
44990;DHT22;30723;51.206;3.326;2023-07-28T05:48:27;19.10;99.90
44990;DHT22;30723;51.206;3.326;2023-07-28T05:50:54;19.10;99.90
44990;DHT22;30723;51.206;3.326;2023-07-28T05:53:21;19.20;99.90
44990;DHT22;30723;51.206;3.326;2023-07-28T05:55:48;19.20;99.90
44990;DHT22;30723;51.206;3.326;2023-07-28T05:58:17;19.30;99.90
44990;DHT22;30723;51.206;3.326;2023-07-28T06:00:45;19.30;99.90
44990;DHT22;30723;51.206;3.326;2023-07-28T06:03:10;19.20;99.90
44990;DHT22;30723;51.206;3.326;2023-07-28T06:05:41;19.20;99.90
44990;DHT22;30723;51.206;3.326;2023-07-28T06:08:08;19.20;99.90
44990;DHT22;30723;51.206;3.326;2023-07-28T06:10:36;19.30;99.90
44990;DHT22;30723;51.206;3.326;2023-07-28T06:13:03;19.20;99.90
44990;DHT22;30723;51.206;3.326;2023-07-28T06:15:30;19.30;99.90
44990;DHT22;30723;51.206;3.326;2023-07-28T06:17:57;19.30;99.90
44990;DHT22;30723;51.206;3.326;2023-07-28T06:20:24;19.40;99.90
44990;DHT22;30723;51.206;3.326;2023-07-28T06:22:50;19.40;99.90
44990;DHT22;30723;51.206;3.326;2023-07-28T06:25:17;19.30;99.90
44990;DHT22;30723;51.206;3.326;2023-07-28T06:27:44;19.40;99.90
44990;DHT22;30723;51.206;3.326;2023-07-28T06:30:12;19.50;99.90
44990;DHT22;30723;51.206;3.326;2023-07-28T06:32:38;19.50;99.90
44990;DHT22;30723;51.206;3.326;2023-07-28T06:35:05;19.60;99.90
44990;DHT22;30723;51.206;3.326;2023-07-28T06:37:33;19.60;99.90
44990;DHT22;30723;51.206;3.326;2023-07-28T06:40:00;19.50;99.90
44990;DHT22;30723;51.206;3.326;2023-07-28T06:42:26;19.50;99.90
44990;DHT22;30723;51.206;3.326;2023-07-28T06:44:54;19.50;99.90
44990;DHT22;30723;51.206;3.326;2023-07-28T06:47:19;19.50;99.90
44990;DHT22;30723;51.206;3.326;2023-07-28T06:49:46;19.50;99.90
44990;DHT22;30723;51.206;3.326;2023-07-28T06:52:12;19.40;99.90
44990;DHT22;30723;51.206;3.326;2023-07-28T06:54:38;19.30;99.90
44990;DHT22;30723;51.206;3.326;2023-07-28T06:57:06;19.20;99.90
44990;DHT22;30723;51.206;3.326;2023-07-28T06:59:33;19.30;99.90
44990;DHT22;30723;51.206;3.326;2023-07-28T07:02:00;19.20;99.90
44990;DHT22;30723;51.206;3.326;2023-07-28T07:04:27;19.30;99.90
44990;DHT22;30723;51.206;3.326;2023-07-28T07:06:53;19.20;99.90
44990;DHT22;30723;51.206;3.326;2023-07-28T07:09:19;19.20;99.90
44990;DHT22;30723;51.206;3.326;2023-07-28T07:11:46;19.30;99.90
44990;DHT22;30723;51.206;3.326;2023-07-28T07:14:13;19.30;99.90
44990;DHT22;30723;51.206;3.326;2023-07-28T07:16:40;19.40;99.90
44990;DHT22;30723;51.206;3.326;2023-07-28T07:19:07;19.50;99.90
44990;DHT22;30723;51.206;3.326;2023-07-28T07:21:35;19.60;99.90
44990;DHT22;30723;51.206;3.326;2023-07-28T07:24:04;19.60;99.90
44990;DHT22;30723;51.206;3.326;2023-07-28T07:26:31;19.70;99.90
44990;DHT22;30723;51.206;3.326;2023-07-28T07:28:57;19.80;99.90
44990;DHT22;30723;51.206;3.326;2023-07-28T07:31:24;19.90;99.90
44990;DHT22;30723;51.206;3.326;2023-07-28T07:33:51;20.00;99.90
44990;DHT22;30723;51.206;3.326;2023-07-28T07:36:19;20.10;99.90
44990;DHT22;30723;51.206;3.326;2023-07-28T07:38:45;20.20;99.90
44990;DHT22;30723;51.206;3.326;2023-07-28T07:41:13;20.30;99.90
44990;DHT22;30723;51.206;3.326;2023-07-28T07:43:45;20.40;99.90
44990;DHT22;30723;51.206;3.326;2023-07-28T07:46:11;20.70;99.90
44990;DHT22;30723;51.206;3.326;2023-07-28T07:48:39;20.80;99.90
44990;DHT22;30723;51.206;3.326;2023-07-28T07:51:06;20.80;99.90
44990;DHT22;30723;51.206;3.326;2023-07-28T07:53:32;20.90;99.90
44990;DHT22;30723;51.206;3.326;2023-07-28T07:55:59;21.00;99.90
44990;DHT22;30723;51.206;3.326;2023-07-28T07:58:26;21.00;99.90
44990;DHT22;30723;51.206;3.326;2023-07-28T08:00:52;21.20;99.90
44990;DHT22;30723;51.206;3.326;2023-07-28T08:03:18;21.20;99.90
44990;DHT22;30723;51.206;3.326;2023-07-28T08:05:44;21.50;99.90
44990;DHT22;30723;51.206;3.326;2023-07-28T08:08:11;21.90;99.90
44990;DHT22;30723;51.206;3.326;2023-07-28T08:10:39;22.00;99.90
44990;DHT22;30723;51.206;3.326;2023-07-28T08:13:05;22.10;99.90
44990;DHT22;30723;51.206;3.326;2023-07-28T08:15:31;21.90;99.90
44990;DHT22;30723;51.206;3.326;2023-07-28T08:17:57;21.90;99.90
44990;DHT22;30723;51.206;3.326;2023-07-28T08:20:24;21.80;99.90
44990;DHT22;30723;51.206;3.326;2023-07-28T08:22:50;21.70;99.90
44990;DHT22;30723;51.206;3.326;2023-07-28T08:25:17;21.70;99.90
44990;DHT22;30723;51.206;3.326;2023-07-28T08:27:45;21.60;99.90
44990;DHT22;30723;51.206;3.326;2023-07-28T08:30:12;21.60;99.90
44990;DHT22;30723;51.206;3.326;2023-07-28T08:32:39;21.50;99.90
44990;DHT22;30723;51.206;3.326;2023-07-28T08:35:07;21.50;99.90
44990;DHT22;30723;51.206;3.326;2023-07-28T08:37:34;21.40;99.90
44990;DHT22;30723;51.206;3.326;2023-07-28T08:40:01;21.30;99.90
44990;DHT22;30723;51.206;3.326;2023-07-28T08:42:30;21.40;99.90
44990;DHT22;30723;51.206;3.326;2023-07-28T08:44:57;21.40;99.90
44990;DHT22;30723;51.206;3.326;2023-07-28T08:47:24;21.40;99.90
44990;DHT22;30723;51.206;3.326;2023-07-28T08:49:51;21.40;99.90
44990;DHT22;30723;51.206;3.326;2023-07-28T08:52:18;21.50;99.90
44990;DHT22;30723;51.206;3.326;2023-07-28T08:54:44;21.60;99.90
44990;DHT22;30723;51.206;3.326;2023-07-28T08:57:13;21.60;99.90
44990;DHT22;30723;51.206;3.326;2023-07-28T08:59:39;21.60;99.90
44990;DHT22;30723;51.206;3.326;2023-07-28T09:02:09;21.60;99.90
44990;DHT22;30723;51.206;3.326;2023-07-28T09:04:37;21.60;99.90
44990;DHT22;30723;51.206;3.326;2023-07-28T09:07:05;21.60;99.90
44990;DHT22;30723;51.206;3.326;2023-07-28T09:09:32;21.50;99.90
44990;DHT22;30723;51.206;3.326;2023-07-28T09:12:00;21.50;99.90
44990;DHT22;30723;51.206;3.326;2023-07-28T09:14:27;21.30;99.90
44990;DHT22;30723;51.206;3.326;2023-07-28T09:16:53;21.20;99.90
44990;DHT22;30723;51.206;3.326;2023-07-28T09:19:21;21.20;99.90
44990;DHT22;30723;51.206;3.326;2023-07-28T09:21:59;21.30;99.90
44990;DHT22;30723;51.206;3.326;2023-07-28T09:24:31;21.30;99.90
44990;DHT22;30723;51.206;3.326;2023-07-28T09:26:58;21.20;99.90
44990;DHT22;30723;51.206;3.326;2023-07-28T09:29:24;21.10;99.90
44990;DHT22;30723;51.206;3.326;2023-07-28T09:31:52;21.00;99.90
44990;DHT22;30723;51.206;3.326;2023-07-28T09:34:41;21.20;99.90
44990;DHT22;30723;51.206;3.326;2023-07-28T09:37:10;21.30;99.90
44990;DHT22;30723;51.206;3.326;2023-07-28T09:39:36;21.40;99.90
44990;DHT22;30723;51.206;3.326;2023-07-28T09:42:03;21.50;99.90
44990;DHT22;30723;51.206;3.326;2023-07-28T09:44:31;21.50;99.90
44990;DHT22;30723;51.206;3.326;2023-07-28T09:46:58;21.70;99.90
44990;DHT22;30723;51.206;3.326;2023-07-28T09:49:39;21.60;99.90
44990;DHT22;30723;51.206;3.326;2023-07-28T09:52:12;21.80;99.90
44990;DHT22;30723;51.206;3.326;2023-07-28T09:54:43;22.20;99.90
44990;DHT22;30723;51.206;3.326;2023-07-28T09:57:13;22.40;99.90
44990;DHT22;30723;51.206;3.326;2023-07-28T09:59:41;22.50;99.90
44990;DHT22;30723;51.206;3.326;2023-07-28T10:02:09;22.60;99.90
44990;DHT22;30723;51.206;3.326;2023-07-28T10:04:36;22.60;99.90
44990;DHT22;30723;51.206;3.326;2023-07-28T10:07:05;22.80;99.90
44990;DHT22;30723;51.206;3.326;2023-07-28T10:09:33;23.10;99.90
44990;DHT22;30723;51.206;3.326;2023-07-28T10:12:01;23.80;99.90
44990;DHT22;30723;51.206;3.326;2023-07-28T10:14:36;24.30;99.90
44990;DHT22;30723;51.206;3.326;2023-07-28T10:17:06;25.20;99.90
44990;DHT22;30723;51.206;3.326;2023-07-28T10:19:35;25.50;99.90
44990;DHT22;30723;51.206;3.326;2023-07-28T10:22:06;25.80;99.90
44990;DHT22;30723;51.206;3.326;2023-07-28T10:27:38;25.20;99.90
44990;DHT22;30723;51.206;3.326;2023-07-28T10:30:10;24.70;99.90
44990;DHT22;30723;51.206;3.326;2023-07-28T10:32:59;24.20;99.90
44990;DHT22;30723;51.206;3.326;2023-07-28T10:35:29;23.80;99.90
44990;DHT22;30723;51.206;3.326;2023-07-28T10:37:58;23.60;99.90
44990;DHT22;30723;51.206;3.326;2023-07-28T10:40:26;23.50;99.90
44990;DHT22;30723;51.206;3.326;2023-07-28T10:42:53;23.60;99.90
44990;DHT22;30723;51.206;3.326;2023-07-28T10:45:21;23.70;99.90
44990;DHT22;30723;51.206;3.326;2023-07-28T10:47:49;23.70;99.90
44990;DHT22;30723;51.206;3.326;2023-07-28T10:50:15;23.60;99.90
44990;DHT22;30723;51.206;3.326;2023-07-28T10:52:42;23.50;99.90
44990;DHT22;30723;51.206;3.326;2023-07-28T10:55:18;23.50;99.90
44990;DHT22;30723;51.206;3.326;2023-07-28T10:57:47;23.30;99.90
44990;DHT22;30723;51.206;3.326;2023-07-28T11:00:16;22.80;99.90
44990;DHT22;30723;51.206;3.326;2023-07-28T11:02:44;22.20;99.90
44990;DHT22;30723;51.206;3.326;2023-07-28T11:05:18;21.70;99.90
44990;DHT22;30723;51.206;3.326;2023-07-28T11:07:44;21.50;99.90
44990;DHT22;30723;51.206;3.326;2023-07-28T11:10:13;21.60;99.90
44990;DHT22;30723;51.206;3.326;2023-07-28T11:12:45;21.60;99.90
44990;DHT22;30723;51.206;3.326;2023-07-28T11:15:14;21.70;99.90
44990;DHT22;30723;51.206;3.326;2023-07-28T11:17:43;21.90;99.90
44990;DHT22;30723;51.206;3.326;2023-07-28T11:20:20;22.10;99.90
44990;DHT22;30723;51.206;3.326;2023-07-28T11:25:19;22.30;99.90
44990;DHT22;30723;51.206;3.326;2023-07-28T11:27:48;22.30;99.90
44990;DHT22;30723;51.206;3.326;2023-07-28T11:30:15;22.60;99.90
44990;DHT22;30723;51.206;3.326;2023-07-28T11:33:06;22.90;99.90
44990;DHT22;30723;51.206;3.326;2023-07-28T11:35:35;23.80;99.90
44990;DHT22;30723;51.206;3.326;2023-07-28T11:38:02;24.60;99.90
44990;DHT22;30723;51.206;3.326;2023-07-28T11:40:29;25.50;99.90
44990;DHT22;30723;51.206;3.326;2023-07-28T11:42:57;26.00;99.90
44990;DHT22;30723;51.206;3.326;2023-07-28T11:45:24;25.70;99.90
44990;DHT22;30723;51.206;3.326;2023-07-28T11:48:03;25.10;99.90
44990;DHT22;30723;51.206;3.326;2023-07-28T11:50:50;24.60;99.90
44990;DHT22;30723;51.206;3.326;2023-07-28T11:53:20;24.20;99.90
44990;DHT22;30723;51.206;3.326;2023-07-28T11:55:47;23.80;99.90
44990;DHT22;30723;51.206;3.326;2023-07-28T11:58:13;23.70;99.90
44990;DHT22;30723;51.206;3.326;2023-07-28T12:00:41;23.40;99.90
44990;DHT22;30723;51.206;3.326;2023-07-28T12:03:12;23.40;99.90
44990;DHT22;30723;51.206;3.326;2023-07-28T12:05:39;23.20;99.90
44990;DHT22;30723;51.206;3.326;2023-07-28T12:08:07;23.10;99.90
44990;DHT22;30723;51.206;3.326;2023-07-28T12:10:37;23.00;99.90
44990;DHT22;30723;51.206;3.326;2023-07-28T12:13:08;23.00;99.90
44990;DHT22;30723;51.206;3.326;2023-07-28T12:15:39;23.00;99.90
44990;DHT22;30723;51.206;3.326;2023-07-28T12:18:09;22.90;99.90
44990;DHT22;30723;51.206;3.326;2023-07-28T12:20:45;22.80;99.90
44990;DHT22;30723;51.206;3.326;2023-07-28T12:23:20;22.70;99.90
44990;DHT22;30723;51.206;3.326;2023-07-28T12:25:47;22.80;99.90
44990;DHT22;30723;51.206;3.326;2023-07-28T12:28:14;22.90;99.90
44990;DHT22;30723;51.206;3.326;2023-07-28T12:30:42;23.30;99.90
44990;DHT22;30723;51.206;3.326;2023-07-28T12:33:09;23.70;99.90
44990;DHT22;30723;51.206;3.326;2023-07-28T12:35:36;24.20;99.90
44990;DHT22;30723;51.206;3.326;2023-07-28T12:38:05;24.70;99.90
44990;DHT22;30723;51.206;3.326;2023-07-28T12:40:33;25.40;99.90
44990;DHT22;30723;51.206;3.326;2023-07-28T12:43:01;25.90;99.90
44990;DHT22;30723;51.206;3.326;2023-07-28T12:45:28;26.30;99.90
44990;DHT22;30723;51.206;3.326;2023-07-28T12:47:54;26.80;99.90
44990;DHT22;30723;51.206;3.326;2023-07-28T12:50:22;27.10;99.90
44990;DHT22;30723;51.206;3.326;2023-07-28T12:52:49;27.20;99.90
44990;DHT22;30723;51.206;3.326;2023-07-28T12:55:17;27.70;99.90
44990;DHT22;30723;51.206;3.326;2023-07-28T12:57:43;28.20;99.90
44990;DHT22;30723;51.206;3.326;2023-07-28T13:00:10;27.70;99.90
44990;DHT22;30723;51.206;3.326;2023-07-28T13:02:40;27.20;99.90
44990;DHT22;30723;51.206;3.326;2023-07-28T13:05:07;26.80;99.90
44990;DHT22;30723;51.206;3.326;2023-07-28T13:07:34;26.30;99.90
44990;DHT22;30723;51.206;3.326;2023-07-28T13:10:02;25.80;99.90
44990;DHT22;30723;51.206;3.326;2023-07-28T13:12:30;25.30;99.90
44990;DHT22;30723;51.206;3.326;2023-07-28T13:14:56;24.90;99.90
44990;DHT22;30723;51.206;3.326;2023-07-28T13:17:23;24.70;99.90
44990;DHT22;30723;51.206;3.326;2023-07-28T13:19:50;24.80;99.90
44990;DHT22;30723;51.206;3.326;2023-07-28T13:22:16;25.10;99.90
44990;DHT22;30723;51.206;3.326;2023-07-28T13:24:43;25.30;99.90
44990;DHT22;30723;51.206;3.326;2023-07-28T13:27:10;25.50;99.90
44990;DHT22;30723;51.206;3.326;2023-07-28T13:29:36;25.60;99.90
44990;DHT22;30723;51.206;3.326;2023-07-28T13:32:03;25.40;99.90
44990;DHT22;30723;51.206;3.326;2023-07-28T13:34:30;25.30;99.90
44990;DHT22;30723;51.206;3.326;2023-07-28T13:36:57;25.30;99.90
44990;DHT22;30723;51.206;3.326;2023-07-28T13:39:23;25.30;99.90
44990;DHT22;30723;51.206;3.326;2023-07-28T13:41:50;25.40;99.90
44990;DHT22;30723;51.206;3.326;2023-07-28T13:44:17;25.50;99.90
44990;DHT22;30723;51.206;3.326;2023-07-28T13:46:43;25.50;99.90
44990;DHT22;30723;51.206;3.326;2023-07-28T13:49:10;25.60;99.90
44990;DHT22;30723;51.206;3.326;2023-07-28T13:51:36;25.50;99.90
44990;DHT22;30723;51.206;3.326;2023-07-28T13:54:03;25.50;99.90
44990;DHT22;30723;51.206;3.326;2023-07-28T13:56:30;25.50;99.90
44990;DHT22;30723;51.206;3.326;2023-07-28T13:58:57;25.30;99.90
44990;DHT22;30723;51.206;3.326;2023-07-28T14:01:23;25.20;99.90
44990;DHT22;30723;51.206;3.326;2023-07-28T14:03:49;25.00;99.90
44990;DHT22;30723;51.206;3.326;2023-07-28T14:06:15;24.90;99.90
44990;DHT22;30723;51.206;3.326;2023-07-28T14:08:42;25.10;99.90
44990;DHT22;30723;51.206;3.326;2023-07-28T14:11:08;25.30;99.90
44990;DHT22;30723;51.206;3.326;2023-07-28T14:13:34;26.00;99.90
44990;DHT22;30723;51.206;3.326;2023-07-28T14:16:01;27.10;99.90
44990;DHT22;30723;51.206;3.326;2023-07-28T14:18:28;27.70;99.90
44990;DHT22;30723;51.206;3.326;2023-07-28T14:20:54;27.70;99.90
44990;DHT22;30723;51.206;3.326;2023-07-28T14:23:40;28.00;99.90
44990;DHT22;30723;51.206;3.326;2023-07-28T14:26:07;27.90;99.90
44990;DHT22;30723;51.206;3.326;2023-07-28T14:28:33;28.10;99.90
44990;DHT22;30723;51.206;3.326;2023-07-28T14:31:00;29.30;99.90
44990;DHT22;30723;51.206;3.326;2023-07-28T14:33:26;29.60;99.90
44990;DHT22;30723;51.206;3.326;2023-07-28T14:35:53;30.30;99.90
44990;DHT22;30723;51.206;3.326;2023-07-28T14:38:20;29.60;99.90
44990;DHT22;30723;51.206;3.326;2023-07-28T14:40:46;29.00;99.90
44990;DHT22;30723;51.206;3.326;2023-07-28T14:43:15;28.40;99.90
44990;DHT22;30723;51.206;3.326;2023-07-28T14:45:42;28.30;99.90
44990;DHT22;30723;51.206;3.326;2023-07-28T14:48:08;28.00;99.90
44990;DHT22;30723;51.206;3.326;2023-07-28T14:50:34;28.00;99.90
44990;DHT22;30723;51.206;3.326;2023-07-28T14:53:00;28.00;99.90
44990;DHT22;30723;51.206;3.326;2023-07-28T14:55:27;27.80;99.90
44990;DHT22;30723;51.206;3.326;2023-07-28T14:57:53;27.60;99.90
44990;DHT22;30723;51.206;3.326;2023-07-28T15:00:20;27.70;99.90
44990;DHT22;30723;51.206;3.326;2023-07-28T15:02:46;27.70;99.90
44990;DHT22;30723;51.206;3.326;2023-07-28T15:05:13;27.60;99.90
44990;DHT22;30723;51.206;3.326;2023-07-28T15:07:40;27.50;99.90
44990;DHT22;30723;51.206;3.326;2023-07-28T15:10:08;27.40;99.90
44990;DHT22;30723;51.206;3.326;2023-07-28T15:12:34;27.50;99.90
44990;DHT22;30723;51.206;3.326;2023-07-28T15:15:01;27.30;99.90
44990;DHT22;30723;51.206;3.326;2023-07-28T15:17:27;27.10;99.90
44990;DHT22;30723;51.206;3.326;2023-07-28T15:19:54;27.00;99.90
44990;DHT22;30723;51.206;3.326;2023-07-28T15:22:19;27.00;99.90
44990;DHT22;30723;51.206;3.326;2023-07-28T15:24:45;26.70;99.90
44990;DHT22;30723;51.206;3.326;2023-07-28T15:27:12;26.50;99.90
44990;DHT22;30723;51.206;3.326;2023-07-28T15:29:39;26.40;99.90
44990;DHT22;30723;51.206;3.326;2023-07-28T15:32:06;26.30;99.90
44990;DHT22;30723;51.206;3.326;2023-07-28T15:34:33;26.00;99.90
44990;DHT22;30723;51.206;3.326;2023-07-28T15:37:00;25.70;99.90
44990;DHT22;30723;51.206;3.326;2023-07-28T15:39:29;25.30;99.90